sensor_id;sensor_type;location;lat;lon;timestamp;P1;durP1;ratioP1;P2;durP2;ratioP2
16173;SDS011;14031;50.158;8.626;2022-10-16T00:01:23;1.20;;;1.20;;
16173;SDS011;14031;50.158;8.626;2022-10-16T00:03:51;3.85;;;1.63;;
16173;SDS011;14031;50.158;8.626;2022-10-16T00:06:19;1.40;;;1.40;;
16173;SDS011;14031;50.158;8.626;2022-10-16T00:08:49;4.10;;;1.30;;
16173;SDS011;14031;50.158;8.626;2022-10-16T00:11:17;1.30;;;1.30;;
16173;SDS011;14031;50.158;8.626;2022-10-16T00:13:48;2.33;;;1.20;;
16173;SDS011;14031;50.158;8.626;2022-10-16T00:16:17;4.63;;;1.48;;
16173;SDS011;14031;50.158;8.626;2022-10-16T00:18:44;2.05;;;1.60;;
16173;SDS011;14031;50.158;8.626;2022-10-16T00:21:12;2.53;;;1.50;;
16173;SDS011;14031;50.158;8.626;2022-10-16T00:23:40;4.50;;;1.77;;
16173;SDS011;14031;50.158;8.626;2022-10-16T00:26:09;2.00;;;1.90;;
16173;SDS011;14031;50.158;8.626;2022-10-16T00:28:37;2.28;;;2.00;;
16173;SDS011;14031;50.158;8.626;2022-10-16T00:31:04;4.00;;;1.98;;
16173;SDS011;14031;50.158;8.626;2022-10-16T00:33:31;2.20;;;2.08;;
16173;SDS011;14031;50.158;8.626;2022-10-16T00:35:58;1.88;;;1.77;;
16173;SDS011;14031;50.158;8.626;2022-10-16T00:38:29;1.98;;;1.88;;
16173;SDS011;14031;50.158;8.626;2022-10-16T00:40:56;2.65;;;2.35;;
16173;SDS011;14031;50.158;8.626;2022-10-16T00:43:35;2.17;;;2.08;;
16173;SDS011;14031;50.158;8.626;2022-10-16T00:46:04;3.47;;;3.17;;
16173;SDS011;14031;50.158;8.626;2022-10-16T00:48:36;4.68;;;4.38;;
16173;SDS011;14031;50.158;8.626;2022-10-16T00:51:04;4.68;;;4.38;;
16173;SDS011;14031;50.158;8.626;2022-10-16T00:53:33;4.40;;;4.10;;
16173;SDS011;14031;50.158;8.626;2022-10-16T00:56:02;5.50;;;4.32;;
16173;SDS011;14031;50.158;8.626;2022-10-16T00:58:30;4.97;;;4.60;;
16173;SDS011;14031;50.158;8.626;2022-10-16T01:00:58;5.05;;;4.63;;
16173;SDS011;14031;50.158;8.626;2022-10-16T01:03:26;5.32;;;5.03;;
16173;SDS011;14031;50.158;8.626;2022-10-16T01:05:59;5.78;;;4.95;;
16173;SDS011;14031;50.158;8.626;2022-10-16T01:08:42;5.55;;;5.15;;
16173;SDS011;14031;50.158;8.626;2022-10-16T01:11:17;5.05;;;4.70;;
16173;SDS011;14031;50.158;8.626;2022-10-16T01:13:49;5.43;;;4.97;;
16173;SDS011;14031;50.158;8.626;2022-10-16T01:16:24;5.70;;;5.40;;
16173;SDS011;14031;50.158;8.626;2022-10-16T01:19:00;6.43;;;5.60;;
16173;SDS011;14031;50.158;8.626;2022-10-16T01:21:35;5.55;;;5.25;;
16173;SDS011;14031;50.158;8.626;2022-10-16T01:24:06;5.82;;;5.50;;
16173;SDS011;14031;50.158;8.626;2022-10-16T01:26:43;5.95;;;5.55;;
16173;SDS011;14031;50.158;8.626;2022-10-16T01:29:24;6.65;;;5.78;;
16173;SDS011;14031;50.158;8.626;2022-10-16T01:31:56;5.30;;;5.05;;
16173;SDS011;14031;50.158;8.626;2022-10-16T01:34:28;6.20;;;5.80;;
16173;SDS011;14031;50.158;8.626;2022-10-16T01:37:02;6.18;;;5.78;;
16173;SDS011;14031;50.158;8.626;2022-10-16T01:39:34;6.18;;;5.43;;
16173;SDS011;14031;50.158;8.626;2022-10-16T01:42:06;6.80;;;6.30;;
16173;SDS011;14031;50.158;8.626;2022-10-16T01:44:40;5.45;;;4.95;;
16173;SDS011;14031;50.158;8.626;2022-10-16T01:47:09;5.28;;;4.90;;
16173;SDS011;14031;50.158;8.626;2022-10-16T01:49:39;4.43;;;4.10;;
16173;SDS011;14031;50.158;8.626;2022-10-16T01:52:08;5.00;;;4.55;;
16173;SDS011;14031;50.158;8.626;2022-10-16T01:54:39;5.10;;;4.80;;
16173;SDS011;14031;50.158;8.626;2022-10-16T01:57:09;5.75;;;5.40;;
16173;SDS011;14031;50.158;8.626;2022-10-16T01:59:39;5.28;;;4.80;;
16173;SDS011;14031;50.158;8.626;2022-10-16T02:02:09;5.68;;;5.30;;
16173;SDS011;14031;50.158;8.626;2022-10-16T02:04:38;5.80;;;4.47;;
16173;SDS011;14031;50.158;8.626;2022-10-16T02:07:08;4.85;;;4.45;;
16173;SDS011;14031;50.158;8.626;2022-10-16T02:09:36;3.95;;;3.42;;
16173;SDS011;14031;50.158;8.626;2022-10-16T02:12:05;3.67;;;3.45;;
16173;SDS011;14031;50.158;8.626;2022-10-16T02:14:36;4.80;;;3.22;;
16173;SDS011;14031;50.158;8.626;2022-10-16T02:17:10;3.70;;;3.50;;
16173;SDS011;14031;50.158;8.626;2022-10-16T02:19:38;3.00;;;2.75;;
16173;SDS011;14031;50.158;8.626;2022-10-16T02:22:05;6.32;;;3.17;;
16173;SDS011;14031;50.158;8.626;2022-10-16T02:24:37;2.65;;;2.55;;
16173;SDS011;14031;50.158;8.626;2022-10-16T02:27:10;2.85;;;2.65;;
16173;SDS011;14031;50.158;8.626;2022-10-16T02:29:44;3.08;;;2.90;;
16173;SDS011;14031;50.158;8.626;2022-10-16T02:32:15;2.45;;;2.35;;
16173;SDS011;14031;50.158;8.626;2022-10-16T02:34:45;3.13;;;2.60;;
16173;SDS011;14031;50.158;8.626;2022-10-16T02:37:15;6.18;;;2.67;;
16173;SDS011;14031;50.158;8.626;2022-10-16T02:39:43;4.97;;;2.30;;
16173;SDS011;14031;50.158;8.626;2022-10-16T02:42:11;2.25;;;2.15;;
16173;SDS011;14031;50.158;8.626;2022-10-16T02:44:41;2.47;;;2.38;;
16173;SDS011;14031;50.158;8.626;2022-10-16T02:47:11;6.38;;;2.50;;
16173;SDS011;14031;50.158;8.626;2022-10-16T02:49:41;2.58;;;2.47;;
16173;SDS011;14031;50.158;8.626;2022-10-16T02:52:07;4.18;;;2.42;;
16173;SDS011;14031;50.158;8.626;2022-10-16T02:54:34;4.43;;;2.50;;
16173;SDS011;14031;50.158;8.626;2022-10-16T02:57:01;3.75;;;2.58;;
16173;SDS011;14031;50.158;8.626;2022-10-16T02:59:27;2.38;;;2.20;;
16173;SDS011;14031;50.158;8.626;2022-10-16T03:01:54;1.92;;;1.83;;
16173;SDS011;14031;50.158;8.626;2022-10-16T03:04:22;2.10;;;2.00;;
16173;SDS011;14031;50.158;8.626;2022-10-16T03:06:49;2.10;;;2.00;;
16173;SDS011;14031;50.158;8.626;2022-10-16T03:09:16;4.17;;;2.03;;
16173;SDS011;14031;50.158;8.626;2022-10-16T03:11:42;2.67;;;1.85;;
16173;SDS011;14031;50.158;8.626;2022-10-16T03:14:09;1.88;;;1.77;;
16173;SDS011;14031;50.158;8.626;2022-10-16T03:16:36;2.25;;;1.88;;
16173;SDS011;14031;50.158;8.626;2022-10-16T03:19:03;2.00;;;1.90;;
16173;SDS011;14031;50.158;8.626;2022-10-16T03:21:31;1.80;;;1.70;;
16173;SDS011;14031;50.158;8.626;2022-10-16T03:23:58;2.05;;;1.63;;
16173;SDS011;14031;50.158;8.626;2022-10-16T03:26:27;3.42;;;1.55;;
16173;SDS011;14031;50.158;8.626;2022-10-16T03:28:54;1.88;;;1.77;;
16173;SDS011;14031;50.158;8.626;2022-10-16T03:31:21;1.60;;;1.60;;
16173;SDS011;14031;50.158;8.626;2022-10-16T03:33:48;1.70;;;1.60;;
16173;SDS011;14031;50.158;8.626;2022-10-16T03:36:14;5.00;;;1.60;;
16173;SDS011;14031;50.158;8.626;2022-10-16T03:38:43;1.52;;;1.52;;
16173;SDS011;14031;50.158;8.626;2022-10-16T03:41:09;1.77;;;1.38;;
16173;SDS011;14031;50.158;8.626;2022-10-16T03:43:36;1.75;;;1.52;;
16173;SDS011;14031;50.158;8.626;2022-10-16T03:46:03;8.70;;;1.52;;
16173;SDS011;14031;50.158;8.626;2022-10-16T03:48:31;4.78;;;1.58;;
16173;SDS011;14031;50.158;8.626;2022-10-16T03:51:00;3.08;;;1.30;;
16173;SDS011;14031;50.158;8.626;2022-10-16T03:53:26;1.55;;;1.55;;
16173;SDS011;14031;50.158;8.626;2022-10-16T03:55:55;3.47;;;1.63;;
16173;SDS011;14031;50.158;8.626;2022-10-16T03:58:21;2.30;;;1.50;;
16173;SDS011;14031;50.158;8.626;2022-10-16T04:00:48;1.88;;;1.40;;
16173;SDS011;14031;50.158;8.626;2022-10-16T04:03:15;2.25;;;1.50;;
16173;SDS011;14031;50.158;8.626;2022-10-16T04:05:43;1.35;;;1.33;;
16173;SDS011;14031;50.158;8.626;2022-10-16T04:08:10;2.13;;;1.40;;
16173;SDS011;14031;50.158;8.626;2022-10-16T04:10:39;1.50;;;1.50;;
16173;SDS011;14031;50.158;8.626;2022-10-16T04:13:09;1.83;;;1.55;;
16173;SDS011;14031;50.158;8.626;2022-10-16T04:15:36;1.45;;;1.45;;
16173;SDS011;14031;50.158;8.626;2022-10-16T04:18:10;1.35;;;1.25;;
16173;SDS011;14031;50.158;8.626;2022-10-16T04:20:37;1.75;;;1.63;;
16173;SDS011;14031;50.158;8.626;2022-10-16T04:23:03;2.65;;;1.63;;
16173;SDS011;14031;50.158;8.626;2022-10-16T04:25:30;1.83;;;1.73;;
16173;SDS011;14031;50.158;8.626;2022-10-16T04:27:57;3.00;;;1.60;;
16173;SDS011;14031;50.158;8.626;2022-10-16T04:30:26;3.85;;;1.50;;
16173;SDS011;14031;50.158;8.626;2022-10-16T04:32:53;3.22;;;1.48;;
16173;SDS011;14031;50.158;8.626;2022-10-16T04:35:20;1.70;;;1.63;;
16173;SDS011;14031;50.158;8.626;2022-10-16T04:37:47;3.58;;;1.63;;
16173;SDS011;14031;50.158;8.626;2022-10-16T04:40:15;1.60;;;1.60;;
16173;SDS011;14031;50.158;8.626;2022-10-16T04:42:42;1.50;;;1.50;;
16173;SDS011;14031;50.158;8.626;2022-10-16T04:45:09;1.60;;;1.50;;
16173;SDS011;14031;50.158;8.626;2022-10-16T04:47:40;1.75;;;1.65;;
16173;SDS011;14031;50.158;8.626;2022-10-16T04:50:07;7.57;;;1.40;;
16173;SDS011;14031;50.158;8.626;2022-10-16T04:52:34;1.70;;;1.70;;
16173;SDS011;14031;50.158;8.626;2022-10-16T04:55:01;6.35;;;1.63;;
16173;SDS011;14031;50.158;8.626;2022-10-16T04:57:28;3.75;;;1.42;;
16173;SDS011;14031;50.158;8.626;2022-10-16T04:59:55;4.22;;;1.50;;
16173;SDS011;14031;50.158;8.626;2022-10-16T05:02:22;2.70;;;1.60;;
16173;SDS011;14031;50.158;8.626;2022-10-16T05:04:50;1.50;;;1.38;;
16173;SDS011;14031;50.158;8.626;2022-10-16T05:07:18;1.55;;;1.50;;
16173;SDS011;14031;50.158;8.626;2022-10-16T05:09:44;1.40;;;1.40;;
16173;SDS011;14031;50.158;8.626;2022-10-16T05:12:11;1.63;;;1.63;;
16173;SDS011;14031;50.158;8.626;2022-10-16T05:14:41;2.53;;;1.30;;
16173;SDS011;14031;50.158;8.626;2022-10-16T05:17:07;2.00;;;1.80;;
16173;SDS011;14031;50.158;8.626;2022-10-16T05:19:43;1.40;;;1.40;;
16173;SDS011;14031;50.158;8.626;2022-10-16T05:22:11;1.38;;;1.38;;
16173;SDS011;14031;50.158;8.626;2022-10-16T05:24:38;2.65;;;1.77;;
16173;SDS011;14031;50.158;8.626;2022-10-16T05:27:05;2.00;;;1.90;;
16173;SDS011;14031;50.158;8.626;2022-10-16T05:29:34;3.35;;;1.52;;
16173;SDS011;14031;50.158;8.626;2022-10-16T05:32:01;1.70;;;1.60;;
16173;SDS011;14031;50.158;8.626;2022-10-16T05:34:28;1.75;;;1.70;;
16173;SDS011;14031;50.158;8.626;2022-10-16T05:36:55;1.88;;;1.77;;
16173;SDS011;14031;50.158;8.626;2022-10-16T05:39:23;2.05;;;1.92;;
16173;SDS011;14031;50.158;8.626;2022-10-16T05:41:50;1.80;;;1.70;;
16173;SDS011;14031;50.158;8.626;2022-10-16T05:44:17;2.17;;;1.90;;
16173;SDS011;14031;50.158;8.626;2022-10-16T05:46:45;1.67;;;1.67;;
16173;SDS011;14031;50.158;8.626;2022-10-16T05:49:12;1.40;;;1.40;;
16173;SDS011;14031;50.158;8.626;2022-10-16T05:51:39;1.70;;;1.60;;
16173;SDS011;14031;50.158;8.626;2022-10-16T05:54:06;2.05;;;1.77;;
16173;SDS011;14031;50.158;8.626;2022-10-16T05:56:34;2.90;;;1.85;;
16173;SDS011;14031;50.158;8.626;2022-10-16T05:59:02;2.20;;;1.88;;
16173;SDS011;14031;50.158;8.626;2022-10-16T06:01:31;2.72;;;1.50;;
16173;SDS011;14031;50.158;8.626;2022-10-16T06:03:58;2.47;;;1.77;;
16173;SDS011;14031;50.158;8.626;2022-10-16T06:06:26;1.70;;;1.60;;
16173;SDS011;14031;50.158;8.626;2022-10-16T06:08:55;2.97;;;1.70;;
16173;SDS011;14031;50.158;8.626;2022-10-16T06:11:24;1.90;;;1.88;;
16173;SDS011;14031;50.158;8.626;2022-10-16T06:13:53;2.25;;;1.88;;
16173;SDS011;14031;50.158;8.626;2022-10-16T06:16:23;1.50;;;1.50;;
16173;SDS011;14031;50.158;8.626;2022-10-16T06:18:52;2.10;;;2.00;;
16173;SDS011;14031;50.158;8.626;2022-10-16T06:21:21;2.60;;;2.00;;
16173;SDS011;14031;50.158;8.626;2022-10-16T06:23:49;2.83;;;2.63;;
16173;SDS011;14031;50.158;8.626;2022-10-16T06:26:17;1.77;;;1.70;;
16173;SDS011;14031;50.158;8.626;2022-10-16T06:28:45;2.35;;;2.15;;
16173;SDS011;14031;50.158;8.626;2022-10-16T06:31:14;1.90;;;1.80;;
16173;SDS011;14031;50.158;8.626;2022-10-16T06:33:42;5.53;;;2.00;;
16173;SDS011;14031;50.158;8.626;2022-10-16T06:36:11;2.63;;;1.88;;
16173;SDS011;14031;50.158;8.626;2022-10-16T06:38:39;4.72;;;2.90;;
16173;SDS011;14031;50.158;8.626;2022-10-16T06:41:06;4.05;;;3.22;;
16173;SDS011;14031;50.158;8.626;2022-10-16T06:43:35;18.70;;;12.77;;
16173;SDS011;14031;50.158;8.626;2022-10-16T06:46:02;5.40;;;4.90;;
16173;SDS011;14031;50.158;8.626;2022-10-16T06:48:31;2.85;;;2.75;;
16173;SDS011;14031;50.158;8.626;2022-10-16T06:50:58;2.40;;;2.20;;
16173;SDS011;14031;50.158;8.626;2022-10-16T06:53:26;4.00;;;2.33;;
16173;SDS011;14031;50.158;8.626;2022-10-16T06:55:55;1.80;;;1.80;;
16173;SDS011;14031;50.158;8.626;2022-10-16T06:58:22;1.92;;;1.90;;
16173;SDS011;14031;50.158;8.626;2022-10-16T07:00:54;2.10;;;1.73;;
16173;SDS011;14031;50.158;8.626;2022-10-16T07:03:21;2.00;;;1.90;;
16173;SDS011;14031;50.158;8.626;2022-10-16T07:05:50;1.95;;;1.85;;
16173;SDS011;14031;50.158;8.626;2022-10-16T07:08:16;2.28;;;2.17;;
16173;SDS011;14031;50.158;8.626;2022-10-16T07:10:43;2.53;;;2.42;;
16173;SDS011;14031;50.158;8.626;2022-10-16T07:13:10;3.47;;;2.25;;
16173;SDS011;14031;50.158;8.626;2022-10-16T07:15:38;1.80;;;1.80;;
16173;SDS011;14031;50.158;8.626;2022-10-16T07:18:04;2.05;;;1.95;;
16173;SDS011;14031;50.158;8.626;2022-10-16T07:20:31;1.70;;;1.60;;
16173;SDS011;14031;50.158;8.626;2022-10-16T07:22:59;1.98;;;1.88;;
16173;SDS011;14031;50.158;8.626;2022-10-16T07:25:26;1.92;;;1.83;;
16173;SDS011;14031;50.158;8.626;2022-10-16T07:27:53;3.20;;;2.10;;
16173;SDS011;14031;50.158;8.626;2022-10-16T07:30:21;2.47;;;1.88;;
16173;SDS011;14031;50.158;8.626;2022-10-16T07:32:48;2.00;;;1.90;;
16173;SDS011;14031;50.158;8.626;2022-10-16T07:35:15;1.65;;;1.55;;
16173;SDS011;14031;50.158;8.626;2022-10-16T07:37:43;1.83;;;1.73;;
16173;SDS011;14031;50.158;8.626;2022-10-16T07:40:12;2.03;;;1.92;;
16173;SDS011;14031;50.158;8.626;2022-10-16T07:42:39;2.10;;;2.03;;
16173;SDS011;14031;50.158;8.626;2022-10-16T07:45:06;3.55;;;2.00;;
16173;SDS011;14031;50.158;8.626;2022-10-16T07:47:33;2.47;;;2.20;;
16173;SDS011;14031;50.158;8.626;2022-10-16T07:50:00;1.90;;;1.80;;
16173;SDS011;14031;50.158;8.626;2022-10-16T07:52:26;2.03;;;1.92;;
16173;SDS011;14031;50.158;8.626;2022-10-16T07:54:53;2.38;;;2.28;;
16173;SDS011;14031;50.158;8.626;2022-10-16T07:57:21;2.05;;;1.77;;
16173;SDS011;14031;50.158;8.626;2022-10-16T07:59:48;3.95;;;2.20;;
16173;SDS011;14031;50.158;8.626;2022-10-16T08:02:17;3.85;;;2.30;;
16173;SDS011;14031;50.158;8.626;2022-10-16T08:04:46;5.63;;;2.38;;
16173;SDS011;14031;50.158;8.626;2022-10-16T08:07:12;2.53;;;2.10;;
16173;SDS011;14031;50.158;8.626;2022-10-16T08:09:39;2.20;;;2.10;;
16173;SDS011;14031;50.158;8.626;2022-10-16T08:12:07;2.55;;;2.42;;
16173;SDS011;14031;50.158;8.626;2022-10-16T08:14:36;3.92;;;2.63;;
16173;SDS011;14031;50.158;8.626;2022-10-16T08:17:03;2.30;;;2.20;;
16173;SDS011;14031;50.158;8.626;2022-10-16T08:19:30;5.07;;;3.65;;
16173;SDS011;14031;50.158;8.626;2022-10-16T08:21:59;6.93;;;2.65;;
16173;SDS011;14031;50.158;8.626;2022-10-16T08:24:26;3.90;;;2.63;;
16173;SDS011;14031;50.158;8.626;2022-10-16T08:26:55;2.63;;;2.47;;
16173;SDS011;14031;50.158;8.626;2022-10-16T08:29:22;2.75;;;2.60;;
16173;SDS011;14031;50.158;8.626;2022-10-16T08:31:50;4.20;;;2.85;;
16173;SDS011;14031;50.158;8.626;2022-10-16T08:34:17;2.70;;;2.60;;
16173;SDS011;14031;50.158;8.626;2022-10-16T08:36:44;3.03;;;2.92;;
16173;SDS011;14031;50.158;8.626;2022-10-16T08:39:10;3.13;;;2.88;;
16173;SDS011;14031;50.158;8.626;2022-10-16T08:41:54;3.55;;;2.88;;
16173;SDS011;14031;50.158;8.626;2022-10-16T08:44:50;2.53;;;2.42;;
16173;SDS011;14031;50.158;8.626;2022-10-16T08:47:47;3.95;;;2.55;;
16173;SDS011;14031;50.158;8.626;2022-10-16T08:50:18;2.63;;;2.53;;
16173;SDS011;14031;50.158;8.626;2022-10-16T08:52:50;3.47;;;3.17;;
16173;SDS011;14031;50.158;8.626;2022-10-16T08:55:23;6.00;;;5.40;;
16173;SDS011;14031;50.158;8.626;2022-10-16T08:57:58;14.52;;;7.30;;
16173;SDS011;14031;50.158;8.626;2022-10-16T09:00:25;4.18;;;3.88;;
16173;SDS011;14031;50.158;8.626;2022-10-16T09:02:55;3.33;;;3.13;;
16173;SDS011;14031;50.158;8.626;2022-10-16T09:08:35;2.45;;;2.35;;
16173;SDS011;14031;50.158;8.626;2022-10-16T09:11:12;3.00;;;2.80;;
16173;SDS011;14031;50.158;8.626;2022-10-16T09:13:48;4.57;;;2.90;;
16173;SDS011;14031;50.158;8.626;2022-10-16T09:16:19;4.97;;;2.88;;
16173;SDS011;14031;50.158;8.626;2022-10-16T09:19:00;3.03;;;2.80;;
16173;SDS011;14031;50.158;8.626;2022-10-16T09:21:33;2.45;;;2.35;;
16173;SDS011;14031;50.158;8.626;2022-10-16T09:24:07;2.50;;;2.40;;
16173;SDS011;14031;50.158;8.626;2022-10-16T09:26:38;3.28;;;2.90;;
16173;SDS011;14031;50.158;8.626;2022-10-16T09:29:04;2.80;;;2.33;;
16173;SDS011;14031;50.158;8.626;2022-10-16T09:31:31;2.50;;;2.33;;
16173;SDS011;14031;50.158;8.626;2022-10-16T09:34:03;9.52;;;4.78;;
16173;SDS011;14031;50.158;8.626;2022-10-16T09:36:33;3.42;;;3.05;;
16173;SDS011;14031;50.158;8.626;2022-10-16T09:39:05;4.05;;;2.55;;
16173;SDS011;14031;50.158;8.626;2022-10-16T09:41:34;4.88;;;2.58;;
16173;SDS011;14031;50.158;8.626;2022-10-16T09:44:01;3.00;;;2.80;;
16173;SDS011;14031;50.158;8.626;2022-10-16T09:46:32;6.57;;;2.70;;
16173;SDS011;14031;50.158;8.626;2022-10-16T09:49:00;6.63;;;3.00;;
16173;SDS011;14031;50.158;8.626;2022-10-16T09:51:30;4.07;;;3.78;;
16173;SDS011;14031;50.158;8.626;2022-10-16T09:54:00;3.60;;;3.42;;
16173;SDS011;14031;50.158;8.626;2022-10-16T09:56:28;3.05;;;2.85;;
16173;SDS011;14031;50.158;8.626;2022-10-16T09:58:57;3.40;;;3.20;;
16173;SDS011;14031;50.158;8.626;2022-10-16T10:01:29;6.18;;;4.32;;
16173;SDS011;14031;50.158;8.626;2022-10-16T10:03:57;4.25;;;3.85;;
16173;SDS011;14031;50.158;8.626;2022-10-16T10:06:29;3.17;;;3.08;;
16173;SDS011;14031;50.158;8.626;2022-10-16T10:09:04;3.72;;;3.53;;
16173;SDS011;14031;50.158;8.626;2022-10-16T10:11:36;3.83;;;3.55;;
16173;SDS011;14031;50.158;8.626;2022-10-16T10:14:04;4.50;;;4.20;;
16173;SDS011;14031;50.158;8.626;2022-10-16T10:16:32;3.33;;;3.13;;
16173;SDS011;14031;50.158;8.626;2022-10-16T10:18:58;3.58;;;3.30;;
16173;SDS011;14031;50.158;8.626;2022-10-16T10:21:25;2.80;;;2.60;;
16173;SDS011;14031;50.158;8.626;2022-10-16T10:23:56;3.47;;;2.70;;
16173;SDS011;14031;50.158;8.626;2022-10-16T10:26:23;3.85;;;2.40;;
16173;SDS011;14031;50.158;8.626;2022-10-16T10:28:55;1.90;;;1.80;;
16173;SDS011;14031;50.158;8.626;2022-10-16T10:31:31;2.05;;;1.95;;
16173;SDS011;14031;50.158;8.626;2022-10-16T10:34:11;1.90;;;1.77;;
16173;SDS011;14031;50.158;8.626;2022-10-16T10:36:48;2.22;;;2.13;;
16173;SDS011;14031;50.158;8.626;2022-10-16T10:39:25;3.63;;;2.47;;
16173;SDS011;14031;50.158;8.626;2022-10-16T10:42:05;3.30;;;1.60;;
16173;SDS011;14031;50.158;8.626;2022-10-16T10:44:57;2.03;;;1.77;;
16173;SDS011;14031;50.158;8.626;2022-10-16T10:47:42;2.30;;;2.10;;
16173;SDS011;14031;50.158;8.626;2022-10-16T10:50:20;4.30;;;2.15;;
16173;SDS011;14031;50.158;8.626;2022-10-16T10:52:53;3.60;;;2.22;;
16173;SDS011;14031;50.158;8.626;2022-10-16T10:55:31;2.22;;;2.08;;
16173;SDS011;14031;50.158;8.626;2022-10-16T10:58:18;4.85;;;1.92;;
16173;SDS011;14031;50.158;8.626;2022-10-16T11:00:57;2.20;;;2.10;;
16173;SDS011;14031;50.158;8.626;2022-10-16T11:03:32;1.95;;;1.85;;
16173;SDS011;14031;50.158;8.626;2022-10-16T11:06:07;2.92;;;2.17;;
16173;SDS011;14031;50.158;8.626;2022-10-16T11:08:37;2.17;;;2.00;;
16173;SDS011;14031;50.158;8.626;2022-10-16T11:11:10;1.98;;;1.73;;
16173;SDS011;14031;50.158;8.626;2022-10-16T11:13:43;2.10;;;1.65;;
16173;SDS011;14031;50.158;8.626;2022-10-16T11:16:19;3.03;;;1.40;;
16173;SDS011;14031;50.158;8.626;2022-10-16T11:18:52;1.52;;;1.42;;
16173;SDS011;14031;50.158;8.626;2022-10-16T11:21:25;1.58;;;1.58;;
16173;SDS011;14031;50.158;8.626;2022-10-16T11:23:56;5.97;;;5.57;;
16173;SDS011;14031;50.158;8.626;2022-10-16T11:26:30;2.83;;;2.70;;
16173;SDS011;14031;50.158;8.626;2022-10-16T11:29:01;2.45;;;2.00;;
16173;SDS011;14031;50.158;8.626;2022-10-16T11:31:32;2.58;;;2.47;;
16173;SDS011;14031;50.158;8.626;2022-10-16T11:34:05;2.17;;;2.08;;
16173;SDS011;14031;50.158;8.626;2022-10-16T11:36:42;2.60;;;2.40;;
16173;SDS011;14031;50.158;8.626;2022-10-16T11:39:18;2.92;;;2.72;;
16173;SDS011;14031;50.158;8.626;2022-10-16T11:41:49;3.20;;;2.90;;
16173;SDS011;14031;50.158;8.626;2022-10-16T11:44:23;4.15;;;3.95;;
16173;SDS011;14031;50.158;8.626;2022-10-16T11:47:01;3.70;;;3.50;;
16173;SDS011;14031;50.158;8.626;2022-10-16T11:49:37;36.33;;;18.13;;
16173;SDS011;14031;50.158;8.626;2022-10-16T11:52:07;16.60;;;11.00;;
16173;SDS011;14031;50.158;8.626;2022-10-16T11:54:42;7.70;;;7.00;;
16173;SDS011;14031;50.158;8.626;2022-10-16T11:57:17;7.20;;;6.68;;
16173;SDS011;14031;50.158;8.626;2022-10-16T11:59:48;5.50;;;5.03;;
16173;SDS011;14031;50.158;8.626;2022-10-16T12:02:27;4.55;;;4.35;;
16173;SDS011;14031;50.158;8.626;2022-10-16T12:05:02;4.90;;;4.60;;
16173;SDS011;14031;50.158;8.626;2022-10-16T12:07:39;4.22;;;4.03;;
16173;SDS011;14031;50.158;8.626;2022-10-16T12:10:18;4.60;;;4.15;;
16173;SDS011;14031;50.158;8.626;2022-10-16T12:12:50;3.47;;;3.38;;
16173;SDS011;14031;50.158;8.626;2022-10-16T12:15:21;5.50;;;4.32;;
16173;SDS011;14031;50.158;8.626;2022-10-16T12:17:50;6.30;;;5.90;;
16173;SDS011;14031;50.158;8.626;2022-10-16T12:23:03;8.85;;;6.93;;
16173;SDS011;14031;50.158;8.626;2022-10-16T12:25:31;6.03;;;5.50;;
16173;SDS011;14031;50.158;8.626;2022-10-16T12:28:02;17.55;;;14.45;;
16173;SDS011;14031;50.158;8.626;2022-10-16T12:30:31;7.13;;;6.50;;
16173;SDS011;14031;50.158;8.626;2022-10-16T12:33:00;8.20;;;7.38;;
16173;SDS011;14031;50.158;8.626;2022-10-16T12:35:30;5.18;;;3.83;;
16173;SDS011;14031;50.158;8.626;2022-10-16T12:38:14;3.00;;;2.83;;
16173;SDS011;14031;50.158;8.626;2022-10-16T12:40:43;2.90;;;2.80;;
16173;SDS011;14031;50.158;8.626;2022-10-16T12:43:25;3.35;;;2.63;;
16173;SDS011;14031;50.158;8.626;2022-10-16T12:46:01;2.50;;;2.38;;
16173;SDS011;14031;50.158;8.626;2022-10-16T12:48:30;3.45;;;3.13;;
16173;SDS011;14031;50.158;8.626;2022-10-16T12:50:57;2.30;;;2.10;;
16173;SDS011;14031;50.158;8.626;2022-10-16T12:53:36;3.47;;;3.17;;
16173;SDS011;14031;50.158;8.626;2022-10-16T12:56:04;2.53;;;1.80;;
16173;SDS011;14031;50.158;8.626;2022-10-16T12:58:46;2.45;;;2.08;;
16173;SDS011;14031;50.158;8.626;2022-10-16T13:04:19;2.20;;;2.10;;
16173;SDS011;14031;50.158;8.626;2022-10-16T13:06:58;1.83;;;1.73;;
16173;SDS011;14031;50.158;8.626;2022-10-16T13:12:25;1.98;;;1.88;;
16173;SDS011;14031;50.158;8.626;2022-10-16T13:15:21;2.45;;;1.80;;
16173;SDS011;14031;50.158;8.626;2022-10-16T13:17:57;2.00;;;1.90;;
16173;SDS011;14031;50.158;8.626;2022-10-16T13:20:31;1.58;;;1.48;;
16173;SDS011;14031;50.158;8.626;2022-10-16T13:23:03;1.98;;;1.88;;
16173;SDS011;14031;50.158;8.626;2022-10-16T13:25:42;2.30;;;2.20;;
16173;SDS011;14031;50.158;8.626;2022-10-16T13:28:21;3.65;;;3.35;;
16173;SDS011;14031;50.158;8.626;2022-10-16T13:30:52;2.88;;;2.67;;
16173;SDS011;14031;50.158;8.626;2022-10-16T13:33:21;2.13;;;1.90;;
16173;SDS011;14031;50.158;8.626;2022-10-16T13:35:56;2.00;;;1.90;;
16173;SDS011;14031;50.158;8.626;2022-10-16T13:38:24;1.83;;;1.73;;
16173;SDS011;14031;50.158;8.626;2022-10-16T13:40:55;1.63;;;1.52;;
16173;SDS011;14031;50.158;8.626;2022-10-16T13:43:25;2.92;;;1.50;;
16173;SDS011;14031;50.158;8.626;2022-10-16T13:46:00;1.83;;;1.73;;
16173;SDS011;14031;50.158;8.626;2022-10-16T13:48:28;1.50;;;1.50;;
16173;SDS011;14031;50.158;8.626;2022-10-16T13:51:02;1.27;;;1.17;;
16173;SDS011;14031;50.158;8.626;2022-10-16T13:53:37;1.38;;;1.38;;
16173;SDS011;14031;50.158;8.626;2022-10-16T13:56:09;1.30;;;1.30;;
16173;SDS011;14031;50.158;8.626;2022-10-16T13:58:37;1.55;;;1.55;;
16173;SDS011;14031;50.158;8.626;2022-10-16T14:01:13;1.60;;;1.50;;
16173;SDS011;14031;50.158;8.626;2022-10-16T14:03:43;1.98;;;1.88;;
16173;SDS011;14031;50.158;8.626;2022-10-16T14:06:14;1.73;;;1.70;;
16173;SDS011;14031;50.158;8.626;2022-10-16T14:08:43;1.70;;;1.60;;
16173;SDS011;14031;50.158;8.626;2022-10-16T14:11:19;1.83;;;1.73;;
16173;SDS011;14031;50.158;8.626;2022-10-16T14:13:47;6.93;;;5.85;;
16173;SDS011;14031;50.158;8.626;2022-10-16T14:16:17;6.60;;;4.03;;
16173;SDS011;14031;50.158;8.626;2022-10-16T14:18:51;2.38;;;2.28;;
16173;SDS011;14031;50.158;8.626;2022-10-16T14:21:22;2.33;;;2.22;;
16173;SDS011;14031;50.158;8.626;2022-10-16T14:23:50;2.10;;;2.00;;
16173;SDS011;14031;50.158;8.626;2022-10-16T14:26:18;2.70;;;2.50;;
16173;SDS011;14031;50.158;8.626;2022-10-16T14:28:47;4.82;;;2.10;;
16173;SDS011;14031;50.158;8.626;2022-10-16T14:31:29;2.22;;;2.10;;
16173;SDS011;14031;50.158;8.626;2022-10-16T14:33:56;3.75;;;2.08;;
16173;SDS011;14031;50.158;8.626;2022-10-16T14:36:24;1.83;;;1.73;;
16173;SDS011;14031;50.158;8.626;2022-10-16T14:39:02;2.03;;;1.83;;
16173;SDS011;14031;50.158;8.626;2022-10-16T14:41:30;1.80;;;1.70;;
16173;SDS011;14031;50.158;8.626;2022-10-16T14:44:01;2.33;;;1.63;;
16173;SDS011;14031;50.158;8.626;2022-10-16T14:46:31;1.90;;;1.80;;
16173;SDS011;14031;50.158;8.626;2022-10-16T14:49:02;1.90;;;1.80;;
16173;SDS011;14031;50.158;8.626;2022-10-16T14:51:39;1.42;;;1.42;;
16173;SDS011;14031;50.158;8.626;2022-10-16T14:54:09;2.03;;;1.90;;
16173;SDS011;14031;50.158;8.626;2022-10-16T14:56:41;1.50;;;1.50;;
16173;SDS011;14031;50.158;8.626;2022-10-16T14:59:12;8.07;;;6.75;;
16173;SDS011;14031;50.158;8.626;2022-10-16T15:01:44;5.07;;;4.68;;
16173;SDS011;14031;50.158;8.626;2022-10-16T15:04:12;4.10;;;3.80;;
16173;SDS011;14031;50.158;8.626;2022-10-16T15:06:40;3.85;;;3.65;;
16173;SDS011;14031;50.158;8.626;2022-10-16T15:09:07;3.20;;;3.00;;
16173;SDS011;14031;50.158;8.626;2022-10-16T15:11:34;3.22;;;3.00;;
16173;SDS011;14031;50.158;8.626;2022-10-16T15:14:01;2.83;;;2.63;;
16173;SDS011;14031;50.158;8.626;2022-10-16T15:16:28;2.50;;;2.40;;
16173;SDS011;14031;50.158;8.626;2022-10-16T15:18:56;2.60;;;2.40;;